Time;durP1;ratioP1;P1;durP2;ratioP2;P2;SDS_P1;SDS_P2;PMS_P1;PMS_P2;Temp;Humidity;BMP_temperature;BMP_pressure;BME280_temperature;BME280_humidity;BME280_pressure;Samples;Min_cycle;Max_cycle;Signal;HPM_P1;HPM_P2
2023/06/02 00:01:34;;;;;;;8.80;6.30;;;;;;;14.32;86.56;100648.02;109550;1248;57214;-66
2023/06/02 00:04:03;;;;;;;8.70;5.70;;;;;;;14.29;86.96;100646.54;109547;1245;57717;-64
2023/06/02 00:06:37;;;;;;;10.60;6.00;;;;;;;14.25;86.96;100647.26;109569;1243;71704;-65
2023/06/02 00:09:06;;;;;;;10.40;6.40;;;;;;;14.19;87.73;100651.67;109573;1243;62170;-65
2023/06/02 00:11:35;;;;;;;10.80;6.30;;;;;;;14.14;87.56;100653.16;109675;1245;59980;-65
2023/06/02 00:14:06;;;;;;;9.40;6.00;;;;;;;14.12;86.14;100655.41;109639;1243;73739;-65
2023/06/02 00:16:55;;;;;;;12.90;6.60;;;;;;;14.07;87.64;100656.71;109333;1248;57631;-65
2023/06/02 00:19:25;;;;;;;11.30;6.20;;;;;;;14.00;89.31;100656.49;109586;1245;57713;-66
2023/06/02 00:21:54;;;;;;;9.40;6.30;;;;;;;13.89;91.46;100658.67;109612;1243;73793;-67
2023/06/02 00:24:24;;;;;;;12.60;6.80;;;;;;;13.93;92.26;100663.22;109599;1244;72931;-65
2023/06/02 00:26:53;;;;;;;10.00;6.80;;;;;;;13.99;92.55;100657.63;109484;1246;60289;-65
2023/06/02 00:29:22;;;;;;;11.20;6.80;;;;;;;14.01;93.48;100651.99;109422;1248;63437;-65
2023/06/02 00:31:51;;;;;;;8.90;6.20;;;;;;;13.98;93.86;100657.48;109570;1245;62212;-66
2023/06/02 00:34:20;;;;;;;10.00;6.40;;;;;;;13.96;93.90;100652.63;109601;1243;61675;-67
2023/06/02 00:36:48;;;;;;;12.50;7.10;;;;;;;13.98;93.68;100651.40;109583;1243;73989;-66
2023/06/02 00:39:17;;;;;;;12.30;7.10;;;;;;;14.01;93.53;100652.32;109405;1248;72651;-65
2023/06/02 00:41:46;;;;;;;10.90;6.70;;;;;;;14.03;93.64;100655.98;109347;1247;69125;-66
2023/06/02 00:44:15;;;;;;;11.60;6.70;;;;;;;14.01;93.44;100657.75;109231;1248;63260;-65
2023/06/02 00:46:44;;;;;;;11.20;6.70;;;;;;;13.97;92.07;100658.08;109291;1245;57482;-65
2023/06/02 00:49:13;;;;;;;12.90;6.80;;;;;;;13.90;93.12;100658.10;109462;1244;58075;-66
2023/06/02 00:51:43;;;;;;;11.40;7.00;;;;;;;13.81;94.27;100659.23;109320;1244;62160;-64
2023/06/02 00:54:13;;;;;;;11.10;6.80;;;;;;;13.73;96.10;100657.98;109363;1243;72094;-65
2023/06/02 00:56:42;;;;;;;9.70;6.80;;;;;;;13.66;97.84;100659.48;109353;1244;70850;-66
2023/06/02 00:59:12;;;;;;;9.90;6.50;;;;;;;13.59;99.31;100653.94;109410;1246;64450;-65
2023/06/02 01:01:44;;;;;;;10.40;6.70;;;;;;;13.54;100.00;100652.10;109636;1245;57662;-65
2023/06/02 01:04:13;;;;;;;9.10;6.70;;;;;;;13.49;100.00;100649.13;109460;1245;57199;-64
2023/06/02 01:06:43;;;;;;;10.00;6.90;;;;;;;13.46;100.00;100650.13;109620;1245;62905;-65
2023/06/02 01:09:13;;;;;;;11.40;6.80;;;;;;;13.44;100.00;100650.61;109584;1241;72183;-65
2023/06/02 01:11:44;;;;;;;10.30;7.00;;;;;;;13.40;100.00;100648.34;109557;1245;68242;-64
2023/06/02 01:14:13;;;;;;;11.80;7.40;;;;;;;13.33;100.00;100649.30;109418;1242;74486;-64
2023/06/02 01:16:44;;;;;;;12.40;7.10;;;;;;;13.30;100.00;100651.17;109301;1247;63390;-65
2023/06/02 01:19:13;;;;;;;10.30;6.50;;;;;;;13.23;100.00;100652.73;109481;1241;61102;-65
2023/06/02 01:21:57;;;;;;;10.90;7.00;;;;;;;13.18;100.00;100652.09;109288;1248;63511;-65
2023/06/02 01:24:39;;;;;;;15.00;7.50;;;;;;;13.12;100.00;100653.14;109353;1241;60843;-65
2023/06/02 01:27:12;;;;;;;11.30;7.60;;;;;;;13.03;100.00;100651.43;109262;1245;69677;-66
2023/06/02 01:29:42;;;;;;;9.70;6.70;;;;;;;12.98;100.00;100655.50;109291;1248;74838;-65
2023/06/02 01:32:25;;;;;;;10.30;6.20;;;;;;;12.92;100.00;100653.59;109238;1246;57747;-65
2023/06/02 01:35:05;;;;;;;10.30;7.00;;;;;;;12.89;100.00;100654.18;109434;1245;61203;-65
2023/06/02 01:37:35;;;;;;;11.50;6.90;;;;;;;12.90;100.00;100654.98;109540;1241;72547;-65
2023/06/02 01:40:06;;;;;;;14.60;6.90;;;;;;;12.90;100.00;100652.41;109435;1245;70894;-65
2023/06/02 01:42:35;;;;;;;9.40;6.60;;;;;;;12.85;100.00;100653.61;109426;1241;70496;-66
2023/06/02 01:45:07;;;;;;;10.40;6.80;;;;;;;12.80;100.00;100649.69;109436;1241;73417;-65
2023/06/02 01:47:36;;;;;;;11.30;6.70;;;;;;;12.79;100.00;100651.00;109324;1245;62537;-65
2023/06/02 01:50:06;;;;;;;12.30;6.80;;;;;;;12.81;100.00;100649.63;109276;1241;61027;-64
2023/06/02 01:52:35;;;;;;;8.80;6.90;;;;;;;12.82;100.00;100654.73;109338;1241;74258;-65
2023/06/02 01:55:04;;;;;;;13.70;7.30;;;;;;;12.81;100.00;100654.84;109275;1241;72087;-65
2023/06/02 01:57:34;;;;;;;9.00;7.10;;;;;;;12.79;100.00;100653.16;109347;1241;70813;-64
2023/06/02 02:00:05;;;;;;;10.50;6.70;;;;;;;12.79;100.00;100654.86;109455;1244;73367;-65
2023/06/02 02:02:40;;;;;;;10.00;7.10;;;;;;;12.76;100.00;100658.56;109562;1244;57717;-64
2023/06/02 02:05:10;;;;;;;10.10;7.00;;;;;;;12.71;100.00;100657.92;109543;1241;57260;-65
2023/06/02 02:07:42;;;;;;;12.70;7.10;;;;;;;12.63;100.00;100653.67;109576;1241;62167;-65
2023/06/02 02:10:12;;;;;;;13.00;7.10;;;;;;;12.56;100.00;100650.30;109354;1241;60901;-65
2023/06/02 02:12:41;;;;;;;12.80;7.30;;;;;;;12.56;100.00;100651.38;109546;1242;60307;-65
2023/06/02 02:15:10;;;;;;;10.30;7.00;;;;;;;12.57;100.00;100651.63;109284;1241;73858;-66
2023/06/02 02:17:47;;;;;;;10.50;7.50;;;;;;;12.54;100.00;100648.19;109680;1241;63523;-64
2023/06/02 02:20:18;;;;;;;14.30;7.70;;;;;;;12.55;100.00;100652.98;109490;1241;61268;-64
2023/06/02 02:22:47;;;;;;;10.70;7.20;;;;;;;12.51;100.00;100651.88;109406;1241;62981;-65
2023/06/02 02:25:16;;;;;;;12.80;7.50;;;;;;;12.48;100.00;100651.82;109471;1241;71732;-65
2023/06/02 02:27:45;;;;;;;9.80;7.20;;;;;;;12.50;100.00;100648.02;109574;1241;60331;-65
2023/06/02 02:30:14;;;;;;;10.40;6.90;;;;;;;12.52;100.00;100644.70;109490;1241;72895;-64
2023/06/02 02:32:44;;;;;;;14.80;7.90;;;;;;;12.51;100.00;100644.05;109494;1245;57680;-64
2023/06/02 02:35:14;;;;;;;10.40;6.90;;;;;;;12.52;100.00;100643.99;109501;1241;57738;-64
2023/06/02 02:37:44;;;;;;;10.50;7.70;;;;;;;12.52;100.00;100644.98;109569;1241;72735;-65
2023/06/02 02:40:20;;;;;;;11.80;7.70;;;;;;;12.55;100.00;100644.58;109574;1243;71913;-64
2023/06/02 02:42:49;;;;;;;16.00;7.80;;;;;;;12.59;100.00;100645.67;109640;1241;59965;-64
2023/06/02 02:45:20;;;;;;;12.40;8.00;;;;;;;12.61;100.00;100651.06;109634;1241;63236;-65
2023/06/02 02:47:49;;;;;;;13.40;7.80;;;;;;;12.63;100.00;100652.34;109694;1244;62911;-65
2023/06/02 02:50:18;;;;;;;9.70;7.20;;;;;;;12.64;100.00;100648.42;109670;1241;57179;-65
2023/06/02 02:52:47;;;;;;;11.80;7.90;;;;;;;12.65;100.00;100647.10;109711;1241;63023;-64
2023/06/02 02:55:16;;;;;;;13.80;7.60;;;;;;;12.66;100.00;100644.54;109613;1243;61543;-64
2023/06/02 02:57:45;;;;;;;12.60;7.60;;;;;;;12.65;100.00;100643.77;109662;1241;60011;-65
2023/06/02 03:00:14;;;;;;;12.60;7.60;;;;;;;12.67;100.00;100647.48;109649;1241;63211;-65
2023/06/02 03:02:44;;;;;;;13.10;7.60;;;;;;;12.66;100.00;100641.94;109436;1245;62202;-65
2023/06/02 03:05:13;;;;;;;11.30;7.20;;;;;;;12.75;100.00;100647.00;109516;1241;57653;-65
2023/06/02 03:07:46;;;;;;;10.90;7.30;;;;;;;12.80;100.00;100643.95;109561;1241;74072;-65
2023/06/02 03:10:15;;;;;;;14.20;7.40;;;;;;;12.84;100.00;100646.02;109285;1244;62375;-65
2023/06/02 03:12:45;;;;;;;10.80;7.80;;;;;;;12.88;100.00;100649.39;109251;1243;68628;-65
2023/06/02 03:15:15;;;;;;;11.70;7.90;;;;;;;12.91;100.00;100652.99;109360;1244;63301;-64
2023/06/02 03:17:45;;;;;;;18.80;8.10;;;;;;;12.96;100.00;100654.80;109486;1244;62143;-65
2023/06/02 03:20:14;;;;;;;17.60;8.30;;;;;;;13.03;100.00;100653.20;109304;1244;60842;-65
2023/06/02 03:22:45;;;;;;;17.90;8.40;;;;;;;13.10;100.00;100652.30;109329;1244;73514;-64
2023/06/02 03:25:14;;;;;;;15.20;8.10;;;;;;;13.16;100.00;100651.06;109336;1245;72074;-65
2023/06/02 03:27:43;;;;;;;18.10;8.20;;;;;;;13.26;100.00;100653.96;109422;1243;60478;-66
2023/06/02 03:30:13;;;;;;;14.30;8.80;;;;;;;13.38;100.00;100654.54;109238;1247;62449;-65
2023/06/02 03:32:42;;;;;;;14.80;8.50;;;;;;;13.52;100.00;100652.09;109363;1248;62335;-66
2023/06/02 03:35:11;;;;;;;14.90;8.80;;;;;;;13.65;100.00;100653.58;109481;1245;60236;-65
2023/06/02 03:37:41;;;;;;;13.20;8.90;;;;;;;13.71;100.00;100643.39;109624;1245;74071;-65
2023/06/02 03:40:10;;;;;;;13.40;8.10;;;;;;;13.88;100.00;100647.89;109501;1244;71916;-64
2023/06/02 03:42:39;;;;;;;15.20;9.30;;;;;;;14.00;100.00;100645.24;109512;1244;71494;-64
2023/06/02 03:45:10;;;;;;;18.70;8.70;;;;;;;14.13;100.00;100643.79;109557;1244;63770;-65
2023/06/02 03:47:39;;;;;;;18.30;9.40;;;;;;;14.26;100.00;100641.59;109582;1246;57694;-65
2023/06/02 03:50:09;;;;;;;15.30;9.20;;;;;;;14.39;100.00;100637.79;109565;1244;57659;-66
2023/06/02 03:52:37;;;;;;;19.20;10.00;;;;;;;14.53;100.00;100639.38;109515;1244;74402;-67
2023/06/02 03:55:08;;;;;;;25.60;15.10;;;;;;;14.67;100.00;100643.37;109541;1244;62105;-66
2023/06/02 03:57:37;;;;;;;22.50;12.00;;;;;;;14.84;100.00;100638.52;109696;1243;70546;-65
2023/06/02 04:00:10;;;;;;;19.40;10.80;;;;;;;14.99;100.00;100638.71;109650;1244;74527;-65
2023/06/02 04:02:42;;;;;;;19.20;11.00;;;;;;;15.10;100.00;100634.87;109665;1244;57668;-65
2023/06/02 04:05:15;;;;;;;22.50;12.10;;;;;;;15.18;100.00;100629.14;109470;1243;60445;-65
2023/06/02 04:07:46;;;;;;;27.30;13.60;;;;;;;15.34;100.00;100634.86;109559;1245;72015;-65
2023/06/02 04:10:15;;;;;;;24.80;13.30;;;;;;;15.48;100.00;100635.12;109751;1241;62092;-64
2023/06/02 04:12:44;;;;;;;26.00;12.60;;;;;;;15.62;100.00;100632.61;109748;1241;59198;-65
2023/06/02 04:15:13;;;;;;;29.40;13.80;;;;;;;15.78;100.00;100630.95;109785;1241;62536;-64
2023/06/02 04:17:43;;;;;;;26.00;13.50;;;;;;;15.96;97.19;100630.93;109664;1244;61103;-64
2023/06/02 04:20:12;;;;;;;25.20;12.10;;;;;;;16.10;94.12;100629.23;109530;1241;58163;-66
2023/06/02 04:22:43;;;;;;;24.20;11.90;;;;;;;16.24;92.30;100626.67;109666;1244;63040;-65
2023/06/02 04:25:12;;;;;;;30.10;12.00;;;;;;;16.36;91.71;100624.73;109529;1247;60917;-66
2023/06/02 04:27:41;;;;;;;23.10;10.60;;;;;;;16.51;90.36;100622.29;109611;1242;70519;-66
2023/06/02 04:30:10;;;;;;;20.50;10.80;;;;;;;16.62;88.07;100624.10;109699;1241;73486;-67
2023/06/02 04:32:40;;;;;;;19.40;10.50;;;;;;;16.77;86.32;100625.93;109669;1244;61094;-66
2023/06/02 04:35:09;;;;;;;19.90;9.80;;;;;;;16.85;85.17;100617.66;109666;1241;57177;-67
2023/06/02 04:37:38;;;;;;;16.40;9.40;;;;;;;16.99;84.84;100615.71;109731;1241;62941;-65
2023/06/02 04:40:08;;;;;;;14.10;8.70;;;;;;;17.15;82.99;100624.42;109617;1245;61665;-65
2023/06/02 04:42:38;;;;;;;29.90;10.80;;;;;;;17.26;81.19;100625.98;109634;1241;60537;-65
2023/06/02 04:45:16;;;;;;;17.80;9.90;;;;;;;17.38;81.07;100625.67;109612;1241;62521;-65
2023/06/02 04:47:47;;;;;;;18.40;8.90;;;;;;;17.51;79.73;100628.71;109446;1241;61266;-66
2023/06/02 04:50:16;;;;;;;15.70;9.20;;;;;;;17.61;79.37;100627.74;109415;1248;57548;-66
2023/06/02 04:52:45;;;;;;;19.70;9.50;;;;;;;17.70;79.03;100623.60;109615;1241;62183;-66
2023/06/02 04:55:16;;;;;;;14.80;9.30;;;;;;;17.84;79.01;100619.67;109480;1241;72326;-66
2023/06/02 04:57:47;;;;;;;15.40;9.10;;;;;;;17.92;78.08;100620.06;109456;1241;70881;-66
2023/06/02 05:00:18;;;;;;;20.70;10.00;;;;;;;18.00;77.36;100618.50;109625;1241;63932;-66
2023/06/02 05:02:46;;;;;;;16.50;10.20;;;;;;;18.08;77.05;100617.53;109614;1241;60252;-66
2023/06/02 05:05:16;;;;;;;18.30;9.70;;;;;;;18.22;75.95;100617.20;109677;1241;60853;-66
2023/06/02 05:07:45;;;;;;;15.30;9.50;;;;;;;18.36;75.48;100616.99;109750;1241;63752;-67
2023/06/02 05:10:15;;;;;;;16.80;9.10;;;;;;;18.49;74.28;100613.99;109639;1241;72294;-65
2023/06/02 05:12:47;;;;;;;21.20;9.60;;;;;;;18.59;74.19;100612.84;109658;1241;69741;-66
2023/06/02 05:15:17;;;;;;;19.30;8.80;;;;;;;18.73;73.85;100611.31;109517;1241;74299;-65
2023/06/02 05:17:45;;;;;;;17.30;9.00;;;;;;;18.86;73.78;100611.34;109617;1245;61764;-66
2023/06/02 05:20:16;;;;;;;15.60;8.50;;;;;;;18.98;73.06;100613.17;109548;1241;61725;-67
2023/06/02 05:22:45;;;;;;;23.90;8.80;;;;;;;19.11;72.10;100615.27;109657;1241;73427;-66
2023/06/02 05:25:14;;;;;;;14.10;8.90;;;;;;;19.22;71.56;100615.67;109752;1244;61502;-66
2023/06/02 05:27:43;;;;;;;18.60;9.50;;;;;;;19.36;71.19;100614.98;109754;1244;59230;-66
2023/06/02 05:30:14;;;;;;;15.20;8.00;;;;;;;19.51;71.04;100618.41;109784;1241;63200;-69
2023/06/02 05:32:43;;;;;;;18.00;9.70;;;;;;;19.65;70.02;100619.21;109622;1245;57099;-69
2023/06/02 05:35:12;;;;;;;19.80;7.60;;;;;;;19.81;70.40;100621.77;109675;1241;60458;-69
2023/06/02 05:37:42;;;;;;;14.40;7.90;;;;;;;19.96;69.51;100621.73;109514;1247;63003;-70
2023/06/02 05:40:12;;;;;;;15.60;7.60;;;;;;;20.11;68.71;100621.86;109454;1241;62417;-70
2023/06/02 05:42:43;;;;;;;15.40;7.90;;;;;;;20.22;67.89;100618.68;109692;1241;70399;-69
2023/06/02 05:45:14;;;;;;;17.70;8.40;;;;;;;20.37;68.06;100616.79;109721;1241;74404;-69
2023/06/02 05:47:46;;;;;;;19.40;7.70;;;;;;;20.50;67.58;100616.70;109682;1245;57722;-70
2023/06/02 05:50:16;;;;;;;16.70;8.50;;;;;;;20.65;67.21;100611.66;109723;1241;57302;-69
2023/06/02 05:52:45;;;;;;;14.80;9.00;;;;;;;20.76;66.50;100613.65;110338;1238;62146;-69
2023/06/02 05:55:14;;;;;;;20.10;9.90;;;;;;;20.88;65.57;100617.44;110194;1239;62107;-70
2023/06/02 05:57:43;;;;;;;17.80;7.80;;;;;;;20.99;65.19;100617.41;110303;1235;60169;-70
2023/06/02 06:00:13;;;;;;;14.00;7.50;;;;;;;21.15;65.27;100617.73;110123;1238;73972;-70
2023/06/02 06:02:42;;;;;;;16.00;7.00;;;;;;;21.27;65.53;100618.61;110342;1238;57119;-69
2023/06/02 06:05:15;;;;;;;18.70;8.70;;;;;;;21.37;64.07;100618.11;110074;1238;57623;-70
2023/06/02 06:07:44;;;;;;;16.10;6.80;;;;;;;21.49;64.25;100620.61;110192;1239;62946;-69
2023/06/02 06:10:13;;;;;;;13.90;7.80;;;;;;;21.57;63.51;100620.34;110042;1240;61674;-69
2023/06/02 06:12:43;;;;;;;15.90;6.80;;;;;;;21.72;63.04;100620.70;110124;1236;69731;-70
2023/06/02 06:15:12;;;;;;;14.20;6.40;;;;;;;21.85;61.58;100618.89;110327;1238;74682;-69
2023/06/02 06:17:51;;;;;;;20.20;6.80;;;;;;;21.87;61.18;100615.77;110072;1239;57324;-68
2023/06/02 06:20:21;;;;;;;14.00;5.90;;;;;;;22.02;61.63;100613.92;110236;1236;60444;-69
2023/06/02 06:22:51;;;;;;;18.90;7.40;;;;;;;22.16;59.65;100614.98;110016;1241;63270;-69
2023/06/02 06:25:23;;;;;;;13.50;5.60;;;;;;;22.23;58.87;100616.03;110056;1241;60728;-69
2023/06/02 06:27:54;;;;;;;15.40;5.80;;;;;;;22.35;58.85;100616.89;110119;1235;59720;-70
2023/06/02 06:30:24;;;;;;;12.20;5.20;;;;;;;22.45;58.65;100619.03;110205;1238;73827;-69
2023/06/02 06:32:57;;;;;;;11.60;5.20;;;;;;;22.59;57.32;100619.61;109954;1238;57728;-70
2023/06/02 06:35:26;;;;;;;7.70;4.60;;;;;;;22.66;57.48;100619.98;110198;1234;61765;-69
2023/06/02 06:38:00;;;;;;;9.80;5.40;;;;;;;22.83;55.87;100620.45;109840;1235;72674;-69
2023/06/02 06:40:31;;;;;;;7.50;5.10;;;;;;;22.87;55.65;100619.61;110052;1235;72001;-69
2023/06/02 06:43:01;;;;;;;15.00;5.70;;;;;;;22.88;55.98;100615.65;110058;1235;61798;-70
2023/06/02 06:46:04;;;;;;;10.70;6.60;;;;;;;22.97;56.81;100615.23;109858;1235;73932;-69
2023/06/02 06:48:33;;;;;;;13.00;7.00;;;;;;;22.97;56.60;100615.88;110176;1237;57868;-69
2023/06/02 06:51:02;;;;;;;16.00;6.80;;;;;;;23.05;57.27;100616.84;110170;1238;57736;-69
2023/06/02 06:53:31;;;;;;;16.60;7.30;;;;;;;23.29;56.99;100612.86;110224;1237;62705;-71
2023/06/02 06:56:02;;;;;;;14.50;7.00;;;;;;;23.41;56.94;100612.93;110118;1238;61078;-70
2023/06/02 06:58:32;;;;;;;14.10;7.00;;;;;;;23.53;57.03;100610.19;110250;1235;70287;-69
2023/06/02 07:01:02;;;;;;;12.30;7.20;;;;;;;23.65;56.71;100606.33;110076;1239;63813;-70
2023/06/02 07:03:30;;;;;;;14.00;6.80;;;;;;;23.80;55.64;100605.05;110229;1238;61250;-69
2023/06/02 07:06:00;;;;;;;14.30;7.00;;;;;;;23.87;55.71;100606.82;110383;1238;57733;-70
2023/06/02 07:08:30;;;;;;;12.80;6.10;;;;;;;23.90;55.71;100612.95;110336;1235;73525;-67
2023/06/02 07:10:58;;;;;;;14.00;6.80;;;;;;;23.90;55.65;100606.39;110289;1235;72849;-69
2023/06/02 07:13:27;;;;;;;13.40;7.00;;;;;;;24.00;55.82;100604.85;110372;1238;60467;-69
2023/06/02 07:15:56;;;;;;;13.70;6.20;;;;;;;24.08;55.89;100605.95;110275;1238;63472;-69
2023/06/02 07:18:25;;;;;;;11.10;5.50;;;;;;;24.23;54.71;100604.63;110328;1238;57626;-69
2023/06/02 07:20:54;;;;;;;12.50;6.40;;;;;;;24.17;55.03;100600.35;110213;1235;57749;-66
2023/06/02 07:23:23;;;;;;;11.60;6.40;;;;;;;24.20;55.57;100605.35;110311;1235;72742;-67
2023/06/02 07:25:52;;;;;;;10.20;5.80;;;;;;;24.30;56.01;100599.52;110065;1235;385288;-65
2023/06/02 07:28:21;;;;;;;13.30;6.50;;;;;;;24.49;54.96;100596.67;110172;1235;71239;-65
2023/06/02 07:31:06;;;;;;;10.00;5.60;;;;;;;24.59;53.94;100596.02;110294;1238;63101;-67
2023/06/02 07:33:38;;;;;;;9.20;5.70;;;;;;;24.86;53.42;100598.15;110223;1239;61011;-67
2023/06/02 07:36:07;;;;;;;8.20;5.40;;;;;;;24.96;52.66;100601.47;110361;1236;61031;-68
2023/06/02 07:38:36;;;;;;;8.00;4.40;;;;;;;24.99;52.17;100598.75;110387;1238;63658;-68
2023/06/02 07:41:05;;;;;;;8.90;5.30;;;;;;;25.05;51.38;100601.27;110239;1235;72073;-66
2023/06/02 07:43:34;;;;;;;15.50;8.40;;;;;;;24.98;51.57;100598.75;110258;1239;60448;-65
2023/06/02 07:46:03;;;;;;;9.00;5.60;;;;;;;25.14;51.06;100600.88;110277;1238;63278;-66
2023/06/02 07:48:33;;;;;;;9.50;4.90;;;;;;;25.31;50.39;100599.52;110351;1237;57149;-66
2023/06/02 07:51:02;;;;;;;6.70;4.80;;;;;;;25.43;50.21;100598.77;110263;1238;61311;-67
2023/06/02 07:53:31;;;;;;;8.30;4.50;;;;;;;25.53;49.49;100596.46;110093;1236;62585;-67
2023/06/02 07:56:00;;;;;;;11.50;4.70;;;;;;;25.64;49.52;100597.08;110359;1236;61585;-67
2023/06/02 07:58:29;;;;;;;14.70;5.20;;;;;;;25.78;48.82;100597.97;110368;1235;59895;-67
2023/06/02 08:00:58;;;;;;;9.30;5.10;;;;;;;25.90;48.43;100594.91;110321;1236;63854;-66
2023/06/02 08:03:27;;;;;;;9.20;5.20;;;;;;;25.89;48.75;100593.73;110357;1235;57243;-66
2023/06/02 08:05:56;;;;;;;6.90;4.70;;;;;;;26.03;46.83;100596.61;110080;1238;61723;-67
2023/06/02 08:08:26;;;;;;;7.10;4.40;;;;;;;26.02;45.25;100596.45;110085;1240;73227;-66
2023/06/02 08:10:57;;;;;;;8.10;4.60;;;;;;;26.00;44.94;100591.00;110039;1235;71487;-66
2023/06/02 08:13:26;;;;;;;9.60;5.00;;;;;;;26.08;45.55;100585.64;110311;1236;70270;-66
2023/06/02 08:15:56;;;;;;;9.10;4.80;;;;;;;26.26;45.12;100584.36;110344;1235;65448;-67
2023/06/02 08:18:45;;;;;;;9.80;5.10;;;;;;;26.52;44.30;100583.70;110282;1237;57656;-67
2023/06/02 08:21:14;;;;;;;8.40;4.70;;;;;;;26.68;42.21;100586.69;110297;1235;57629;-67
2023/06/02 08:23:44;;;;;;;13.40;4.80;;;;;;;26.75;41.94;100585.10;110235;1235;62082;-67
2023/06/02 08:26:15;;;;;;;5.50;4.10;;;;;;;26.90;41.44;100587.83;110102;1239;72888;-66
2023/06/02 08:28:48;;;;;;;7.80;4.10;;;;;;;26.85;40.78;100588.89;110107;1235;59941;-66
2023/06/02 08:31:20;;;;;;;6.40;4.20;;;;;;;26.52;41.49;100586.66;110092;1239;64206;-67
2023/06/02 08:33:53;;;;;;;6.70;4.50;;;;;;;26.51;41.99;100581.45;110018;1238;57727;-69
2023/06/02 08:36:23;;;;;;;;;;;;;;;26.69;40.61;100578.29;110073;1241;57700;-66
2023/06/02 08:38:52;;;;;;;7.20;4.20;;;;;;;26.65;39.94;100574.86;110180;1236;62869;-66
2023/06/02 08:41:22;;;;;;;10.80;4.80;;;;;;;26.77;40.51;100570.25;110245;1238;61716;-66
2023/06/02 08:43:52;;;;;;;7.90;4.50;;;;;;;26.98;39.94;100569.21;110350;1236;70673;-66
2023/06/02 08:46:21;;;;;;;10.20;5.10;;;;;;;27.15;39.61;100562.67;109913;1237;63918;-67
2023/06/02 08:48:58;;;;;;;6.00;3.80;;;;;;;27.31;37.99;100559.49;110341;1238;61223;-67
2023/06/02 08:51:33;;;;;;;5.60;4.20;;;;;;;27.37;38.22;100556.94;110123;1236;57467;-68
2023/06/02 08:54:06;;;;;;;7.30;4.00;;;;;;;27.36;37.29;100561.52;110099;1238;71572;-68
2023/06/02 08:56:35;;;;;;;7.20;4.30;;;;;;;27.30;36.46;100557.40;110090;1236;61302;-67
2023/06/02 08:59:05;;;;;;;6.70;4.40;;;;;;;27.23;36.98;100548.64;110086;1239;69688;-71
2023/06/02 09:01:34;;;;;;;6.20;3.90;;;;;;;27.43;36.20;100552.94;109949;1238;63194;-69
2023/06/02 09:04:04;;;;;;;7.80;4.40;;;;;;;27.63;35.60;100558.38;109904;1241;57759;-71
2023/06/02 09:06:36;;;;;;;8.40;4.10;;;;;;;27.81;34.82;100554.54;110324;1236;61329;-71
2023/06/02 15:26:27;;;;;;;6.60;3.60;;;;;;;27.13;37.39;100339.73;104664;1276;607450;-70
2023/06/02 15:28:55;;;;;;;7.90;3.70;;;;;;;27.09;37.76;100339.38;106950;1251;59133;-73
2023/06/02 15:31:23;;;;;;;7.00;3.60;;;;;;;27.18;37.93;100337.98;106791;1253;61474;-72
2023/06/02 15:33:51;;;;;;;7.30;3.90;;;;;;;27.37;37.44;100334.17;106668;1261;62748;-70
2023/06/02 15:36:21;;;;;;;6.60;3.50;;;;;;;27.54;37.20;100336.38;106679;1252;61345;-70
2023/06/02 15:38:48;;;;;;;6.70;3.80;;;;;;;27.59;37.45;100339.85;106389;1247;243964;-71
2023/06/02 15:41:16;;;;;;;6.60;4.10;;;;;;;27.94;37.02;100338.37;106620;1260;65134;-70
2023/06/02 15:43:43;;;;;;;6.00;4.10;;;;;;;28.61;36.64;100336.41;106655;1260;57530;-70
2023/06/02 15:46:11;;;;;;;6.40;3.30;;;;;;;29.59;35.40;100329.59;106691;1247;57259;-70
2023/06/02 15:48:44;;;;;;;9.70;3.50;;;;;;;30.61;33.88;100328.92;106657;1251;62667;-71
2023/06/02 15:51:13;;;;;;;4.70;3.10;;;;;;;31.32;32.48;100331.84;106692;1251;63991;-71
2023/06/02 15:53:41;;;;;;;8.00;3.50;;;;;;;31.74;31.80;100327.85;106717;1248;69909;-73
2023/06/02 15:56:09;;;;;;;6.10;3.40;;;;;;;32.13;31.23;100332.80;106503;1250;74882;-71
2023/06/02 15:58:36;;;;;;;6.80;3.90;;;;;;;31.98;31.01;100325.58;106544;1251;60555;-70
2023/06/02 16:01:04;;;;;;;5.50;3.30;;;;;;;32.47;30.61;100340.21;106616;1251;59043;-70
2023/06/02 16:03:32;;;;;;;8.20;3.80;;;;;;;32.65;29.93;100344.21;106761;1250;62572;-71
2023/06/02 16:06:00;;;;;;;6.60;3.60;;;;;;;32.95;29.52;100349.52;106773;1247;63007;-70
2023/06/02 16:08:27;;;;;;;8.00;4.60;;;;;;;33.35;29.07;100349.69;106676;1258;70443;-71
2023/06/02 16:10:55;;;;;;;8.10;5.00;;;;;;;33.37;28.67;100349.16;106713;1251;63588;-69
2023/06/02 16:13:23;;;;;;;11.50;4.50;;;;;;;33.53;28.41;100348.24;106638;1254;59022;-69
2023/06/02 16:15:53;;;;;;;8.50;3.90;;;;;;;33.45;28.15;100351.44;106774;1254;59052;-70
2023/06/02 16:18:22;;;;;;;6.40;3.70;;;;;;;33.56;27.86;100355.13;106822;1251;73636;-70
2023/06/02 16:20:49;;;;;;;8.80;3.70;;;;;;;33.37;27.80;100357.33;106827;1251;71769;-70
2023/06/02 16:23:17;;;;;;;6.90;3.90;;;;;;;32.52;28.32;100363.70;106848;1260;60594;-71
2023/06/02 16:25:45;;;;;;;9.70;3.80;;;;;;;31.00;30.17;100365.02;106848;1251;71719;-69
2023/06/02 16:28:13;;;;;;;6.30;4.10;;;;;;;30.28;31.25;100363.11;106868;1248;62097;-71
2023/06/02 16:30:40;;;;;;;7.80;3.90;;;;;;;29.39;32.74;100361.94;106821;1260;61047;-71
2023/06/02 16:33:08;;;;;;;13.50;4.60;;;;;;;28.66;33.92;100363.87;106920;1260;62123;-70
2023/06/02 16:35:36;;;;;;;5.50;3.10;;;;;;;27.99;35.67;100366.60;106872;1251;61190;-71
2023/06/02 16:38:03;;;;;;;6.10;3.90;;;;;;;27.59;37.84;100371.85;106798;1260;70014;-68
2023/06/02 16:40:31;;;;;;;8.40;3.80;;;;;;;27.04;39.04;100368.64;106791;1250;63263;-70
2023/06/02 16:42:59;;;;;;;8.40;4.20;;;;;;;26.58;39.70;100366.98;106818;1251;59107;-70
2023/06/02 16:45:27;;;;;;;8.80;4.10;;;;;;;26.27;40.29;100365.15;106700;1248;57920;-69
2023/06/02 16:47:56;;;;;;;6.90;3.70;;;;;;;26.02;41.01;100363.30;106655;1248;72245;-70
2023/06/02 16:50:24;;;;;;;6.90;4.30;;;;;;;25.94;41.26;100364.98;106594;1252;71485;-69
2023/06/02 16:52:52;;;;;;;8.40;4.20;;;;;;;25.73;41.79;100367.73;106671;1248;71145;-69
2023/06/02 16:55:19;;;;;;;7.50;4.10;;;;;;;25.66;41.19;100372.34;106617;1251;63865;-71
2023/06/02 16:57:47;;;;;;;6.40;4.40;;;;;;;25.51;41.67;100373.31;106582;1260;61700;-71
2023/06/02 17:00:17;;;;;;;7.10;4.30;;;;;;;25.38;41.94;100371.80;106699;1251;62357;-72
2023/06/02 17:02:44;;;;;;;7.20;4.30;;;;;;;25.31;42.78;100373.39;106628;1248;72379;-72
2023/06/02 17:05:13;;;;;;;10.80;5.50;;;;;;;25.23;42.89;100368.36;106602;1257;72922;-71
2023/06/02 17:07:41;;;;;;;8.30;5.00;;;;;;;25.18;42.53;100368.44;106585;1251;60334;-72
2023/06/02 17:10:10;;;;;;;9.70;4.20;;;;;;;25.15;42.09;100367.22;106563;1254;63544;-72
2023/06/02 17:12:38;;;;;;;8.70;4.20;;;;;;;25.16;42.43;100364.46;106631;1250;59212;-71
2023/06/02 17:15:07;;;;;;;8.10;4.70;;;;;;;25.40;42.93;100365.55;106664;1251;59163;-70
2023/06/02 17:17:35;;;;;;;7.50;4.90;;;;;;;25.69;43.59;100367.85;106681;1251;61389;-71
2023/06/02 17:20:05;;;;;;;9.40;4.70;;;;;;;25.79;42.55;100363.75;106714;1260;61874;-73
2023/06/02 17:22:33;;;;;;;8.90;4.50;;;;;;;25.65;42.99;100368.04;106591;1260;59108;-71
2023/06/02 17:25:02;;;;;;;8.50;4.50;;;;;;;25.40;44.01;100367.64;106724;1248;62544;-74
2023/06/02 17:27:30;;;;;;;8.10;4.60;;;;;;;25.30;43.64;100369.39;106679;1248;60502;-71
2023/06/02 17:29:58;;;;;;;9.70;6.30;;;;;;;25.08;44.07;100366.33;106723;1249;59142;-71
2023/06/02 17:32:26;;;;;;;8.20;5.40;;;;;;;24.86;44.80;100363.38;106659;1251;72802;-74
2023/06/02 17:34:54;;;;;;;7.90;5.00;;;;;;;24.87;43.73;100361.77;106589;1251;73973;-70
2023/06/02 17:37:22;;;;;;;9.00;4.20;;;;;;;24.75;44.15;100367.02;106646;1248;69552;-70
2023/06/02 17:39:51;;;;;;;8.50;4.70;;;;;;;24.64;44.22;100373.50;106537;1251;74492;-70